Amarant — CQSF — position and weather

sailwx.info

Track history (hours):
 
Tides and Currents Weather Stations Pressure Air Temp Water Temp Dewpoint Dewpoint Depression Visibility Wind Speed Wind Dir Waves Ship Positions

Amarant

Last reported at 2014-Dec-21 21:29 UTC. Time now 2014-Dec-22 07:45 UTC.
Position N 55°39' E 015°29'.

Length 120 m; draft 6.1 m.

Type: Tanker. MMSI: 255623000.

Date/timePositionNaut miles runAvg speedWind from/ knotsBaromVisibWave heightAir tempDewpointWater temp
2014-Dec-21 21:29N 55°39' E 015°29'1314.1
2014-Dec-21 20:33N 55°33' E 015°08'1414.0
2014-Dec-21 19:33N 55°26' E 014°47'1414.1
2014-Dec-21 18:33N 55°16' E 014°30'1414.3
2014-Dec-21 17:33N 55°05' E 014°13'1413.7
2014-Dec-21 16:33N 54°58' E 013°52'1414.1
2014-Dec-21 15:33N 54°54' E 013°29'1413.9
2014-Dec-21 14:33N 54°50' E 013°06'1413.9
2014-Dec-21 13:33N 54°44' E 012°44'1414.3
2014-Dec-21 12:33N 54°37' E 012°23'1414.2
2014-Dec-21 11:34N 54°25' E 012°10'1514.5
2014-Dec-21 10:34N 54°25' E 011°45'1515.2
2014-Dec-21 09:33N 54°32' E 011°21'1514.7
2014-Dec-21 08:33N 54°34' E 010°56'1414.3
2014-Dec-21 07:34N 54°33' E 010°31'1312.8
2014-Dec-21 06:33N 54°25' E 010°13'5 4.6
2014-Dec-21 05:34N 54°22' E 010°08'1 1.2
2014-Dec-21 04:34N 54°22' E 010°06'7 6.8
2014-Dec-21 03:33N 54°21' E 009°55'7 6.9
2014-Dec-21 02:34N 54°20' E 009°43'7 7.3
2014-Dec-21 01:34N 54°14' E 009°36'7 6.6
2014-Dec-21 00:32N 54°10' E 009°26'6 6.2
2014-Dec-20 23:32N 54°05' E 009°19'8 8.2
2014-Dec-20 22:33N 53°58' E 009°15'6 5.6
2014-Dec-20 21:34N 53°54' E 009°09'2 1.7
2014-Dec-20 20:33N 53°53' E 009°06'9 9.2
2014-Dec-20 19:34N 53°50' E 009°21'1514.6
2014-Dec-20 18:34N 53°37' E 009°33'1313.0
2014-Dec-20 17:33N 53°33' E 009°53'5 4.7
2014-Dec-20 16:33N 53°29' E 009°57'0 0.0
2014-Dec-20 01:33N 53°29' E 009°57'5 5.1
2014-Dec-20 00:33N 53°33' E 009°52'1212.2
2014-Dec-19 23:34N 53°37' E 009°33'1515.0
2014-Dec-19 22:33N 53°50' E 009°20'1313.4
2014-Dec-19 21:34N 53°51' E 008°58'1413.6
2014-Dec-19 20:33N 53°57' E 008°37'1313.4
2014-Dec-19 19:33N 53°60' E 008°15'1414.3
2014-Dec-19 18:33N 53°57' E 007°51'3314.5
2014-Dec-19 16:15N 53°50' E 006°56'2514.3
2014-Dec-19 14:31N 53°43' E 006°15'1414.2
2014-Dec-19 13:33N 53°39' E 005°53'1413.8
2014-Dec-19 12:33N 53°35' E 005°31'1313.4
2014-Dec-19 11:33N 53°30' E 005°10'1313.0
2014-Dec-19 10:33N 53°25' E 004°50'1211.5
2014-Dec-19 09:33N 53°16' E 004°37'1212.2
2014-Dec-19 08:33N 53°06' E 004°27'1212.5
2014-Dec-19 07:34N 52°55' E 004°18'1212.0
2014-Dec-19 06:33N 52°45' E 004°07'1312.7
2014-Dec-19 05:34N 52°36' E 003°52'2612.9
2014-Dec-19 03:32N 52°13' E 003°32'2913.9
2014-Dec-19 01:28N 51°45' E 003°17'1010.7
2014-Dec-19 00:33N 51°36' E 003°23'1312.9
2014-Dec-18 23:33N 51°26' E 003°35'8 8.0
2014-Dec-18 22:33N 51°22' E 003°46'9 8.8
2014-Dec-18 21:33N 51°26' E 003°58'8 8.2
2014-Dec-18 20:33N 51°24' E 004°11'5 4.9
2014-Dec-18 19:33N 51°21' E 004°17'0 0.1
2014-Dec-18 18:34N 51°21' E 004°17'1 1.4
2014-Dec-18 17:33N 51°20' E 004°19'5 4.8
2014-Dec-18 16:33N 51°15' E 004°22'0 0.0
2014-Dec-18 15:31N 51°15' E 004°22'0 0.0
2014-Dec-18 14:31N 51°15' E 004°22'0 0.0
2014-Dec-18 13:31N 51°15' E 004°22'0 0.0
2014-Dec-18 12:31N 51°15' E 004°22'0 0.0
2014-Dec-18 11:28N 51°15' E 004°22'0 0.0
2014-Dec-18 10:31N 51°15' E 004°22'0 0.0
2014-Dec-18 09:31N 51°15' E 004°22'0 0.0
2014-Dec-18 08:31N 51°15' E 004°22'0 0.0
2014-Dec-18 07:31N 51°15' E 004°22'0 0.0
2014-Dec-18 06:31N 51°15' E 004°22'0 0.0
2014-Dec-18 05:31N 51°15' E 004°22'0 0.0
2014-Dec-18 04:31N 51°15' E 004°22'0 0.0
2014-Dec-18 03:31N 51°15' E 004°22'0 0.0
2014-Dec-18 02:31N 51°15' E 004°22'0 0.0
2014-Dec-18 01:31N 51°15' E 004°22'0 0.0
2014-Dec-18 00:34N 51°15' E 004°22'0 0.0
2014-Dec-17 23:31N 51°15' E 004°22'0 0.0
2014-Dec-17 22:31N 51°15' E 004°22'0 0.0
2014-Dec-17 21:34N 51°15' E 004°22'0 0.0
2014-Dec-17 20:34N 51°15' E 004°22'0 0.0
2014-Dec-17 19:33N 51°15' E 004°22'0 0.0
2014-Dec-17 18:33N 51°15' E 004°22'0 0.0
2014-Dec-17 17:33N 51°15' E 004°22'0 0.0
2014-Dec-17 16:33N 51°15' E 004°22'0 0.0
2014-Dec-17 15:33N 51°15' E 004°22'0 0.0
2014-Dec-17 14:33N 51°15' E 004°22'0 0.4
2014-Dec-17 13:33N 51°15' E 004°22'0 0.0
2014-Dec-17 12:32N 51°15' E 004°22'0 0.0
2014-Dec-17 11:32N 51°15' E 004°22'0 0.0
2014-Dec-17 10:32N 51°15' E 004°22'0 0.0
2014-Dec-17 09:32N 51°15' E 004°22'0 0.0
2014-Dec-17 08:32N 51°15' E 004°22'0 0.0
2014-Dec-17 07:32N 51°15' E 004°22'0 0.0
2014-Dec-17 06:32N 51°15' E 004°22'0 0.0
2014-Dec-17 05:32N 51°15' E 004°22'0 0.0
2014-Dec-17 04:32N 51°15' E 004°22'0 0.0
2014-Dec-17 03:32N 51°15' E 004°22'0 0.0
2014-Dec-17 02:32N 51°15' E 004°22'0 0.0
2014-Dec-17 01:32N 51°15' E 004°22'0 0.0
2014-Dec-17 00:32N 51°15' E 004°22'0 0.0
2014-Dec-16 23:32N 51°15' E 004°22'0 0.0
2014-Dec-16 22:32N 51°15' E 004°22'0 0.0
2014-Dec-16 21:32N 51°15' E 004°22'0 0.0
2014-Dec-16 20:32N 51°15' E 004°22'0 0.0
2014-Dec-16 19:32N 51°15' E 004°22'0 0.0
2014-Dec-16 18:32N 51°15' E 004°22'0 0.0
2014-Dec-16 17:32N 51°15' E 004°22'0 0.0
2014-Dec-16 16:32N 51°15' E 004°22'0 0.0
2014-Dec-16 15:32N 51°15' E 004°22'0 0.0
2014-Dec-16 14:29N 51°15' E 004°22'0 0.0
2014-Dec-16 13:32N 51°15' E 004°22'0 0.0
2014-Dec-16 12:32N 51°15' E 004°22'0 0.0
2014-Dec-16 11:32N 51°15' E 004°22'0 0.0
2014-Dec-16 10:32N 51°15' E 004°22'0 0.1
2014-Dec-16 09:34N 51°15' E 004°22'6 6.4
2014-Dec-16 08:34N 51°21' E 004°17'0 0.0
2014-Dec-16 07:34N 51°21' E 004°17'1 0.6
2014-Dec-16 06:33N 51°21' E 004°16'9 9.4
2014-Dec-16 05:33N 51°24' E 004°02'9 9.3
2014-Dec-16 04:33N 51°21' E 003°48'9 9.4
2014-Dec-16 03:33N 51°26' E 003°35'8 7.6
2014-Dec-16 02:32N 51°31' E 003°26'1510.2
2014-Dec-16 01:06N 51°45' E 003°16'3 5.1
2014-Dec-16 00:32N 51°47' E 003°19'0 0.1
2014-Dec-15 23:12N 51°47' E 003°19'0 0.1
2014-Dec-15 22:33N 51°47' E 003°19'0 0.0
2014-Dec-15 21:33N 51°47' E 003°19'0 0.0
2014-Dec-15 20:23N 51°47' E 003°19'0 0.0
2014-Dec-15 19:29N 51°47' E 003°19'0 0.0
2014-Dec-15 10:26N 51°47' E 003°19'0 0.0
2014-Dec-15 08:14N 51°47' E 003°19'0 0.0
2014-Dec-15 07:11N 51°47' E 003°19'0 0.0
2014-Dec-15 03:23N 51°47' E 003°19'0 0.0
2014-Dec-15 02:14N 51°47' E 003°19'0 0.0
2014-Dec-15 01:26N 51°47' E 003°19'0 0.0
2014-Dec-15 00:17N 51°47' E 003°19'0 0.0
2014-Dec-14 23:11N 51°47' E 003°19'0 0.0
2014-Dec-14 22:17N 51°47' E 003°19'0 0.0
2014-Dec-14 21:23N 51°47' E 003°19'0 0.0
2014-Dec-14 12:23N 51°47' E 003°19'0 0.0
2014-Dec-14 11:17N 51°47' E 003°19'0 0.0
2014-Dec-14 10:32N 51°47' E 003°19'0 0.0
2014-Dec-14 09:32N 51°47' E 003°19'0 0.0
2014-Dec-14 08:17N 51°47' E 003°19'0 0.0
2014-Dec-14 07:32N 51°47' E 003°19'0 0.0
2014-Dec-14 05:07N 51°47' E 003°19'0 0.1
2014-Dec-14 04:31N 51°47' E 003°19'0 0.1
2014-Dec-14 03:31N 51°47' E 003°19'0 0.1
2014-Dec-14 02:22N 51°47' E 003°19'0 0.0
2014-Dec-14 00:19N 51°47' E 003°19'0 0.0
2014-Dec-13 18:31N 51°47' E 003°19'0 0.0
2014-Dec-13 17:31N 51°47' E 003°19'0 0.1
2014-Dec-13 16:31N 51°47' E 003°19'0 0.0
2014-Dec-13 11:04N 51°47' E 003°19'0 0.1
2014-Dec-13 09:11N 51°47' E 003°19'0 0.0
2014-Dec-13 08:28N 51°47' E 003°19'82 9.8
2014-Dec-13 00:06N 53°03' E 004°10'38 7.8
2014-Dec-12 19:13N 53°36' E 004°40'28 9.7
2014-Dec-12 16:19N 54°04' E 004°50'9 9.8
2014-Dec-12 15:26N 54°11' E 004°57'11 9.7
2014-Dec-12 14:17N 54°21' E 005°07'  
Track history (hours):
 
Tides and Currents Weather Stations Pressure Air Temp Water Temp Dewpoint Dewpoint Depression Visibility Wind Speed Wind Dir Waves Ship Positions

Amarant

Last reported at 2014-Dec-21 21:29 UTC. Time now 2014-Dec-22 07:45 UTC.
Position N 55°39' E 015°29'.

Length 120 m; draft 6.1 m.

Type: Tanker. MMSI: 255623000.

Date/timePositionNaut miles runAvg speedWind from/ knotsBaromVisibWave heightAir tempDewpointWater temp
2014-Dec-21 21:29N 55°39' E 015°29'1314.1
2014-Dec-21 20:33N 55°33' E 015°08'1414.0
2014-Dec-21 19:33N 55°26' E 014°47'1414.1
2014-Dec-21 18:33N 55°16' E 014°30'1414.3
2014-Dec-21 17:33N 55°05' E 014°13'1413.7
2014-Dec-21 16:33N 54°58' E 013°52'1414.1
2014-Dec-21 15:33N 54°54' E 013°29'1413.9
2014-Dec-21 14:33N 54°50' E 013°06'1413.9
2014-Dec-21 13:33N 54°44' E 012°44'1414.3
2014-Dec-21 12:33N 54°37' E 012°23'1414.2
2014-Dec-21 11:34N 54°25' E 012°10'1514.5
2014-Dec-21 10:34N 54°25' E 011°45'1515.2
2014-Dec-21 09:33N 54°32' E 011°21'1514.7
2014-Dec-21 08:33N 54°34' E 010°56'1414.3
2014-Dec-21 07:34N 54°33' E 010°31'1312.8
2014-Dec-21 06:33N 54°25' E 010°13'5 4.6
2014-Dec-21 05:34N 54°22' E 010°08'1 1.2
2014-Dec-21 04:34N 54°22' E 010°06'7 6.8
2014-Dec-21 03:33N 54°21' E 009°55'7 6.9
2014-Dec-21 02:34N 54°20' E 009°43'7 7.3
2014-Dec-21 01:34N 54°14' E 009°36'7 6.6
2014-Dec-21 00:32N 54°10' E 009°26'6 6.2
2014-Dec-20 23:32N 54°05' E 009°19'8 8.2
2014-Dec-20 22:33N 53°58' E 009°15'6 5.6
2014-Dec-20 21:34N 53°54' E 009°09'2 1.7
2014-Dec-20 20:33N 53°53' E 009°06'9 9.2
2014-Dec-20 19:34N 53°50' E 009°21'1514.6
2014-Dec-20 18:34N 53°37' E 009°33'1313.0
2014-Dec-20 17:33N 53°33' E 009°53'5 4.7
2014-Dec-20 16:33N 53°29' E 009°57'0 0.0
2014-Dec-20 01:33N 53°29' E 009°57'5 5.1
2014-Dec-20 00:33N 53°33' E 009°52'1212.2
2014-Dec-19 23:34N 53°37' E 009°33'1515.0
2014-Dec-19 22:33N 53°50' E 009°20'1313.4
2014-Dec-19 21:34N 53°51' E 008°58'1413.6
2014-Dec-19 20:33N 53°57' E 008°37'1313.4
2014-Dec-19 19:33N 53°60' E 008°15'1414.3
2014-Dec-19 18:33N 53°57' E 007°51'3314.5
2014-Dec-19 16:15N 53°50' E 006°56'2514.3
2014-Dec-19 14:31N 53°43' E 006°15'1414.2
2014-Dec-19 13:33N 53°39' E 005°53'1413.8
2014-Dec-19 12:33N 53°35' E 005°31'1313.4
2014-Dec-19 11:33N 53°30' E 005°10'1313.0
2014-Dec-19 10:33N 53°25' E 004°50'1211.5
2014-Dec-19 09:33N 53°16' E 004°37'1212.2
2014-Dec-19 08:33N 53°06' E 004°27'1212.5
2014-Dec-19 07:34N 52°55' E 004°18'1212.0
2014-Dec-19 06:33N 52°45' E 004°07'1312.7
2014-Dec-19 05:34N 52°36' E 003°52'2612.9
2014-Dec-19 03:32N 52°13' E 003°32'2913.9
2014-Dec-19 01:28N 51°45' E 003°17'1010.7
2014-Dec-19 00:33N 51°36' E 003°23'1312.9
2014-Dec-18 23:33N 51°26' E 003°35'8 8.0
2014-Dec-18 22:33N 51°22' E 003°46'9 8.8
2014-Dec-18 21:33N 51°26' E 003°58'8 8.2
2014-Dec-18 20:33N 51°24' E 004°11'5 4.9
2014-Dec-18 19:33N 51°21' E 004°17'0 0.1
2014-Dec-18 18:34N 51°21' E 004°17'1 1.4
2014-Dec-18 17:33N 51°20' E 004°19'5 4.8
2014-Dec-18 16:33N 51°15' E 004°22'0 0.0
2014-Dec-18 15:31N 51°15' E 004°22'0 0.0
2014-Dec-18 14:31N 51°15' E 004°22'0 0.0
2014-Dec-18 13:31N 51°15' E 004°22'0 0.0
2014-Dec-18 12:31N 51°15' E 004°22'0 0.0
2014-Dec-18 11:28N 51°15' E 004°22'0 0.0
2014-Dec-18 10:31N 51°15' E 004°22'0 0.0
2014-Dec-18 09:31N 51°15' E 004°22'0 0.0
2014-Dec-18 08:31N 51°15' E 004°22'0 0.0
2014-Dec-18 07:31N 51°15' E 004°22'0 0.0
2014-Dec-18 06:31N 51°15' E 004°22'0 0.0
2014-Dec-18 05:31N 51°15' E 004°22'0 0.0
2014-Dec-18 04:31N 51°15' E 004°22'0 0.0
2014-Dec-18 03:31N 51°15' E 004°22'0 0.0
2014-Dec-18 02:31N 51°15' E 004°22'0 0.0
2014-Dec-18 01:31N 51°15' E 004°22'0 0.0
2014-Dec-18 00:34N 51°15' E 004°22'0 0.0
2014-Dec-17 23:31N 51°15' E 004°22'0 0.0
2014-Dec-17 22:31N 51°15' E 004°22'0 0.0
2014-Dec-17 21:34N 51°15' E 004°22'0 0.0
2014-Dec-17 20:34N 51°15' E 004°22'0 0.0
2014-Dec-17 19:33N 51°15' E 004°22'0 0.0
2014-Dec-17 18:33N 51°15' E 004°22'0 0.0
2014-Dec-17 17:33N 51°15' E 004°22'0 0.0
2014-Dec-17 16:33N 51°15' E 004°22'0 0.0
2014-Dec-17 15:33N 51°15' E 004°22'0 0.0
2014-Dec-17 14:33N 51°15' E 004°22'0 0.4
2014-Dec-17 13:33N 51°15' E 004°22'0 0.0
2014-Dec-17 12:32N 51°15' E 004°22'0 0.0
2014-Dec-17 11:32N 51°15' E 004°22'0 0.0
2014-Dec-17 10:32N 51°15' E 004°22'0 0.0
2014-Dec-17 09:32N 51°15' E 004°22'0 0.0
2014-Dec-17 08:32N 51°15' E 004°22'0 0.0
2014-Dec-17 07:32N 51°15' E 004°22'0 0.0
2014-Dec-17 06:32N 51°15' E 004°22'0 0.0
2014-Dec-17 05:32N 51°15' E 004°22'0 0.0
2014-Dec-17 04:32N 51°15' E 004°22'0 0.0
2014-Dec-17 03:32N 51°15' E 004°22'0 0.0
2014-Dec-17 02:32N 51°15' E 004°22'0 0.0
2014-Dec-17 01:32N 51°15' E 004°22'0 0.0
2014-Dec-17 00:32N 51°15' E 004°22'0 0.0
2014-Dec-16 23:32N 51°15' E 004°22'0 0.0
2014-Dec-16 22:32N 51°15' E 004°22'0 0.0
2014-Dec-16 21:32N 51°15' E 004°22'0 0.0
2014-Dec-16 20:32N 51°15' E 004°22'0 0.0
2014-Dec-16 19:32N 51°15' E 004°22'0 0.0
2014-Dec-16 18:32N 51°15' E 004°22'0 0.0
2014-Dec-16 17:32N 51°15' E 004°22'0 0.0
2014-Dec-16 16:32N 51°15' E 004°22'0 0.0
2014-Dec-16 15:32N 51°15' E 004°22'0 0.0
2014-Dec-16 14:29N 51°15' E 004°22'0 0.0
2014-Dec-16 13:32N 51°15' E 004°22'0 0.0
2014-Dec-16 12:32N 51°15' E 004°22'0 0.0
2014-Dec-16 11:32N 51°15' E 004°22'0 0.0
2014-Dec-16 10:32N 51°15' E 004°22'0 0.1
2014-Dec-16 09:34N 51°15' E 004°22'6 6.4
2014-Dec-16 08:34N 51°21' E 004°17'0 0.0
2014-Dec-16 07:34N 51°21' E 004°17'1 0.6
2014-Dec-16 06:33N 51°21' E 004°16'9 9.4
2014-Dec-16 05:33N 51°24' E 004°02'9 9.3
2014-Dec-16 04:33N 51°21' E 003°48'9 9.4
2014-Dec-16 03:33N 51°26' E 003°35'8 7.6
2014-Dec-16 02:32N 51°31' E 003°26'1510.2
2014-Dec-16 01:06N 51°45' E 003°16'3 5.1
2014-Dec-16 00:32N 51°47' E 003°19'0 0.1
2014-Dec-15 23:12N 51°47' E 003°19'0 0.1
2014-Dec-15 22:33N 51°47' E 003°19'0 0.0
2014-Dec-15 21:33N 51°47' E 003°19'0 0.0
2014-Dec-15 20:23N 51°47' E 003°19'0 0.0
2014-Dec-15 19:29N 51°47' E 003°19'0 0.0
2014-Dec-15 10:26N 51°47' E 003°19'0 0.0
2014-Dec-15 08:14N 51°47' E 003°19'0 0.0
2014-Dec-15 07:11N 51°47' E 003°19'0 0.0
2014-Dec-15 03:23N 51°47' E 003°19'0 0.0
2014-Dec-15 02:14N 51°47' E 003°19'0 0.0
2014-Dec-15 01:26N 51°47' E 003°19'0 0.0
2014-Dec-15 00:17N 51°47' E 003°19'0 0.0
2014-Dec-14 23:11N 51°47' E 003°19'0 0.0
2014-Dec-14 22:17N 51°47' E 003°19'0 0.0
2014-Dec-14 21:23N 51°47' E 003°19'0 0.0
2014-Dec-14 12:23N 51°47' E 003°19'0 0.0
2014-Dec-14 11:17N 51°47' E 003°19'0 0.0
2014-Dec-14 10:32N 51°47' E 003°19'0 0.0
2014-Dec-14 09:32N 51°47' E 003°19'0 0.0
2014-Dec-14 08:17N 51°47' E 003°19'0 0.0
2014-Dec-14 07:32N 51°47' E 003°19'0 0.0
2014-Dec-14 05:07N 51°47' E 003°19'0 0.1
2014-Dec-14 04:31N 51°47' E 003°19'0 0.1
2014-Dec-14 03:31N 51°47' E 003°19'0 0.1
2014-Dec-14 02:22N 51°47' E 003°19'0 0.0
2014-Dec-14 00:19N 51°47' E 003°19'0 0.0
2014-Dec-13 18:31N 51°47' E 003°19'0 0.0
2014-Dec-13 17:31N 51°47' E 003°19'0 0.1
2014-Dec-13 16:31N 51°47' E 003°19'0 0.0
2014-Dec-13 11:04N 51°47' E 003°19'0 0.1
2014-Dec-13 09:11N 51°47' E 003°19'0 0.0
2014-Dec-13 08:28N 51°47' E 003°19'82 9.8
2014-Dec-13 00:06N 53°03' E 004°10'38 7.8
2014-Dec-12 19:13N 53°36' E 004°40'28 9.7
2014-Dec-12 16:19N 54°04' E 004°50'9 9.8
2014-Dec-12 15:26N 54°11' E 004°57'11 9.7
2014-Dec-12 14:17N 54°21' E 005°07'  

Dump ship's entire track history